sensor_id;sensor_type;location;lat;lon;timestamp;temperature;humidity
31991;DHT22;18508;49.386;8.370;2023-06-26T00:00:24;20.00;99.90
31991;DHT22;18508;49.386;8.370;2023-06-26T00:02:53;20.10;99.90
31991;DHT22;18508;49.386;8.370;2023-06-26T00:05:22;20.00;99.90
31991;DHT22;18508;49.386;8.370;2023-06-26T00:07:50;20.10;1.00
31991;DHT22;18508;49.386;8.370;2023-06-26T00:10:18;20.20;1.00
31991;DHT22;18508;49.386;8.370;2023-06-26T00:12:46;20.00;1.00
31991;DHT22;18508;49.386;8.370;2023-06-26T00:15:14;20.00;99.90
31991;DHT22;18508;49.386;8.370;2023-06-26T00:17:44;19.90;1.00
31991;DHT22;18508;49.386;8.370;2023-06-26T00:20:12;20.20;1.00
31991;DHT22;18508;49.386;8.370;2023-06-26T00:22:43;19.90;1.00
31991;DHT22;18508;49.386;8.370;2023-06-26T00:25:12;19.90;1.00
31991;DHT22;18508;49.386;8.370;2023-06-26T00:27:40;19.80;1.00
31991;DHT22;18508;49.386;8.370;2023-06-26T00:30:09;19.70;1.00
31991;DHT22;18508;49.386;8.370;2023-06-26T00:40:24;19.60;99.90
31991;DHT22;18508;49.386;8.370;2023-06-26T00:45:26;19.50;99.90
31991;DHT22;18508;49.386;8.370;2023-06-26T00:48:11;19.50;99.90
31991;DHT22;18508;49.386;8.370;2023-06-26T00:50:42;19.50;99.90
31991;DHT22;18508;49.386;8.370;2023-06-26T00:53:13;18.90;70.40
31991;DHT22;18508;49.386;8.370;2023-06-26T00:58:10;19.40;99.90
31991;DHT22;18508;49.386;8.370;2023-06-26T01:00:41;19.40;99.90
31991;DHT22;18508;49.386;8.370;2023-06-26T01:03:12;19.20;99.90
31991;DHT22;18508;49.386;8.370;2023-06-26T01:05:42;19.40;99.90
31991;DHT22;18508;49.386;8.370;2023-06-26T01:08:13;19.40;99.90
31991;DHT22;18508;49.386;8.370;2023-06-26T01:10:43;19.30;99.90
31991;DHT22;18508;49.386;8.370;2023-06-26T01:13:12;19.30;99.90
31991;DHT22;18508;49.386;8.370;2023-06-26T01:20:44;18.80;99.90
31991;DHT22;18508;49.386;8.370;2023-06-26T01:23:17;19.10;99.90
31991;DHT22;18508;49.386;8.370;2023-06-26T01:28:32;18.90;99.90
31991;DHT22;18508;49.386;8.370;2023-06-26T01:31:03;18.80;99.90
31991;DHT22;18508;49.386;8.370;2023-06-26T01:33:32;18.40;99.90
31991;DHT22;18508;49.386;8.370;2023-06-26T01:36:01;18.20;99.90
31991;DHT22;18508;49.386;8.370;2023-06-26T01:38:29;18.40;99.90
31991;DHT22;18508;49.386;8.370;2023-06-26T01:40:57;18.40;99.90
31991;DHT22;18508;49.386;8.370;2023-06-26T01:43:31;18.60;99.90
31991;DHT22;18508;49.386;8.370;2023-06-26T01:46:09;18.30;1.00
31991;DHT22;18508;49.386;8.370;2023-06-26T01:48:44;18.00;1.00
31991;DHT22;18508;49.386;8.370;2023-06-26T01:51:16;18.00;1.00
31991;DHT22;18508;49.386;8.370;2023-06-26T01:53:51;18.20;1.00
31991;DHT22;18508;49.386;8.370;2023-06-26T01:56:23;17.90;1.00
31991;DHT22;18508;49.386;8.370;2023-06-26T01:58:54;18.20;1.00
31991;DHT22;18508;49.386;8.370;2023-06-26T02:01:23;18.20;1.00
31991;DHT22;18508;49.386;8.370;2023-06-26T02:03:52;17.90;1.00
31991;DHT22;18508;49.386;8.370;2023-06-26T02:06:20;17.80;1.00
31991;DHT22;18508;49.386;8.370;2023-06-26T02:08:49;18.10;1.00
31991;DHT22;18508;49.386;8.370;2023-06-26T02:11:18;18.10;1.00
31991;DHT22;18508;49.386;8.370;2023-06-26T02:13:47;17.10;1.00
31991;DHT22;18508;49.386;8.370;2023-06-26T02:16:17;18.10;1.00
31991;DHT22;18508;49.386;8.370;2023-06-26T02:18:45;18.40;1.00
31991;DHT22;18508;49.386;8.370;2023-06-26T02:21:14;18.00;1.00
31991;DHT22;18508;49.386;8.370;2023-06-26T02:23:43;18.00;27.80
31991;DHT22;18508;49.386;8.370;2023-06-26T02:28:40;18.00;1.00
31991;DHT22;18508;49.386;8.370;2023-06-26T02:33:38;18.00;13.20
31991;DHT22;18508;49.386;8.370;2023-06-26T02:36:08;18.10;1.00
31991;DHT22;18508;49.386;8.370;2023-06-26T02:38:36;18.40;1.00
31991;DHT22;18508;49.386;8.370;2023-06-26T02:46:00;18.10;1.00
31991;DHT22;18508;49.386;8.370;2023-06-26T02:48:29;18.00;1.00
31991;DHT22;18508;49.386;8.370;2023-06-26T02:50:59;18.00;1.00
31991;DHT22;18508;49.386;8.370;2023-06-26T02:53:29;18.10;1.00
31991;DHT22;18508;49.386;8.370;2023-06-26T02:55:58;18.00;1.00
31991;DHT22;18508;49.386;8.370;2023-06-26T02:58:26;18.10;1.00
31991;DHT22;18508;49.386;8.370;2023-06-26T03:00:54;18.20;1.00
31991;DHT22;18508;49.386;8.370;2023-06-26T03:03:23;18.20;8.60
31991;DHT22;18508;49.386;8.370;2023-06-26T03:05:51;18.20;27.40
31991;DHT22;18508;49.386;8.370;2023-06-26T03:08:22;18.30;13.30
31991;DHT22;18508;49.386;8.370;2023-06-26T03:10:50;17.90;41.90
31991;DHT22;18508;49.386;8.370;2023-06-26T03:13:18;18.60;18.00
31991;DHT22;18508;49.386;8.370;2023-06-26T03:15:47;18.30;3.50
31991;DHT22;18508;49.386;8.370;2023-06-26T03:18:17;18.20;62.30
31991;DHT22;18508;49.386;8.370;2023-06-26T03:20:46;18.30;64.10
31991;DHT22;18508;49.386;8.370;2023-06-26T03:23:14;18.30;37.50
31991;DHT22;18508;49.386;8.370;2023-06-26T03:25:44;18.30;99.30
31991;DHT22;18508;49.386;8.370;2023-06-26T03:28:14;18.30;71.60
31991;DHT22;18508;49.386;8.370;2023-06-26T03:30:43;18.30;94.20
31991;DHT22;18508;49.386;8.370;2023-06-26T03:33:11;18.30;57.70
31991;DHT22;18508;49.386;8.370;2023-06-26T03:35:40;18.30;87.00
31991;DHT22;18508;49.386;8.370;2023-06-26T03:38:08;18.30;82.70
31991;DHT22;18508;49.386;8.370;2023-06-26T03:43:09;18.30;82.50
31991;DHT22;18508;49.386;8.370;2023-06-26T03:45:37;18.30;20.80
31991;DHT22;18508;49.386;8.370;2023-06-26T03:48:06;18.20;20.90
31991;DHT22;18508;49.386;8.370;2023-06-26T03:50:37;18.10;38.60
31991;DHT22;18508;49.386;8.370;2023-06-26T03:58:05;17.90;99.90
31991;DHT22;18508;49.386;8.370;2023-06-26T04:00:35;18.00;99.90
31991;DHT22;18508;49.386;8.370;2023-06-26T04:08:00;18.00;99.90
31991;DHT22;18508;49.386;8.370;2023-06-26T04:10:28;18.20;99.90
31991;DHT22;18508;49.386;8.370;2023-06-26T04:15:26;18.30;97.20
31991;DHT22;18508;49.386;8.370;2023-06-26T04:17:56;18.40;99.90
31991;DHT22;18508;49.386;8.370;2023-06-26T04:22:53;18.50;11.50
31991;DHT22;18508;49.386;8.370;2023-06-26T04:25:21;18.50;2.20
31991;DHT22;18508;49.386;8.370;2023-06-26T04:27:50;18.50;1.60
31991;DHT22;18508;49.386;8.370;2023-06-26T04:30:18;18.60;32.20
31991;DHT22;18508;49.386;8.370;2023-06-26T04:32:46;18.60;1.00
31991;DHT22;18508;49.386;8.370;2023-06-26T04:35:19;18.60;1.00
31991;DHT22;18508;49.386;8.370;2023-06-26T04:37:48;19.10;9.50
31991;DHT22;18508;49.386;8.370;2023-06-26T04:42:46;18.80;1.00
31991;DHT22;18508;49.386;8.370;2023-06-26T04:45:14;18.90;1.00
31991;DHT22;18508;49.386;8.370;2023-06-26T04:47:42;19.00;1.00
31991;DHT22;18508;49.386;8.370;2023-06-26T04:50:11;19.00;1.00
31991;DHT22;18508;49.386;8.370;2023-06-26T04:52:44;19.20;1.00
31991;DHT22;18508;49.386;8.370;2023-06-26T04:55:13;19.10;1.00
31991;DHT22;18508;49.386;8.370;2023-06-26T04:57:41;19.40;1.00
31991;DHT22;18508;49.386;8.370;2023-06-26T05:00:11;19.30;1.00
31991;DHT22;18508;49.386;8.370;2023-06-26T05:02:39;19.50;1.00
31991;DHT22;18508;49.386;8.370;2023-06-26T05:05:08;19.80;1.00
31991;DHT22;18508;49.386;8.370;2023-06-26T05:07:37;19.70;99.90
31991;DHT22;18508;49.386;8.370;2023-06-26T05:10:07;19.50;99.90
31991;DHT22;18508;49.386;8.370;2023-06-26T05:12:38;19.90;99.90
31991;DHT22;18508;49.386;8.370;2023-06-26T05:15:08;19.80;99.90
31991;DHT22;18508;49.386;8.370;2023-06-26T05:17:37;20.00;99.90
31991;DHT22;18508;49.386;8.370;2023-06-26T05:20:07;20.20;99.90
31991;DHT22;18508;49.386;8.370;2023-06-26T05:22:38;20.30;99.90
31991;DHT22;18508;49.386;8.370;2023-06-26T05:25:10;20.40;99.90
31991;DHT22;18508;49.386;8.370;2023-06-26T05:27:39;20.50;91.60
31991;DHT22;18508;49.386;8.370;2023-06-26T05:30:09;20.60;1.00
31991;DHT22;18508;49.386;8.370;2023-06-26T05:32:40;20.70;1.00
31991;DHT22;18508;49.386;8.370;2023-06-26T05:35:09;20.80;1.00
31991;DHT22;18508;49.386;8.370;2023-06-26T05:37:38;21.20;1.00
31991;DHT22;18508;49.386;8.370;2023-06-26T05:40:11;21.10;1.00
31991;DHT22;18508;49.386;8.370;2023-06-26T05:42:44;21.40;1.00
31991;DHT22;18508;49.386;8.370;2023-06-26T05:45:15;21.40;1.00
31991;DHT22;18508;49.386;8.370;2023-06-26T05:47:44;21.50;1.00
31991;DHT22;18508;49.386;8.370;2023-06-26T05:50:14;21.50;1.00
31991;DHT22;18508;49.386;8.370;2023-06-26T05:52:43;21.80;99.90
31991;DHT22;18508;49.386;8.370;2023-06-26T05:55:15;22.30;99.90
31991;DHT22;18508;49.386;8.370;2023-06-26T05:57:46;22.10;99.90
31991;DHT22;18508;49.386;8.370;2023-06-26T06:02:45;22.30;99.90
31991;DHT22;18508;49.386;8.370;2023-06-26T06:05:13;22.30;99.90
31991;DHT22;18508;49.386;8.370;2023-06-26T06:10:10;22.50;58.90
31991;DHT22;18508;49.386;8.370;2023-06-26T06:12:40;22.80;39.80
31991;DHT22;18508;49.386;8.370;2023-06-26T06:15:08;23.00;1.00
31991;DHT22;18508;49.386;8.370;2023-06-26T06:17:37;23.10;1.00
31991;DHT22;18508;49.386;8.370;2023-06-26T06:20:07;23.20;1.00
31991;DHT22;18508;49.386;8.370;2023-06-26T06:22:36;23.30;1.00
31991;DHT22;18508;49.386;8.370;2023-06-26T06:25:05;23.60;1.00
31991;DHT22;18508;49.386;8.370;2023-06-26T06:27:35;23.60;99.90
31991;DHT22;18508;49.386;8.370;2023-06-26T06:30:06;23.70;1.00
31991;DHT22;18508;49.386;8.370;2023-06-26T06:32:34;23.80;99.90
31991;DHT22;18508;49.386;8.370;2023-06-26T06:35:04;24.00;99.90
31991;DHT22;18508;49.386;8.370;2023-06-26T06:37:37;24.50;99.90
31991;DHT22;18508;49.386;8.370;2023-06-26T06:40:06;24.20;99.90
31991;DHT22;18508;49.386;8.370;2023-06-26T06:42:37;24.40;99.90
31991;DHT22;18508;49.386;8.370;2023-06-26T06:45:08;24.50;99.90
31991;DHT22;18508;49.386;8.370;2023-06-26T06:47:36;24.60;99.90
31991;DHT22;18508;49.386;8.370;2023-06-26T06:50:06;24.60;99.90
31991;DHT22;18508;49.386;8.370;2023-06-26T06:52:39;24.60;99.90
31991;DHT22;18508;49.386;8.370;2023-06-26T06:55:08;24.80;99.90
31991;DHT22;18508;49.386;8.370;2023-06-26T06:57:38;24.90;99.90
31991;DHT22;18508;49.386;8.370;2023-06-26T07:00:10;24.90;99.90
31991;DHT22;18508;49.386;8.370;2023-06-26T07:02:41;24.90;99.90
31991;DHT22;18508;49.386;8.370;2023-06-26T07:05:11;24.90;99.90
31991;DHT22;18508;49.386;8.370;2023-06-26T07:07:40;25.10;99.90
31991;DHT22;18508;49.386;8.370;2023-06-26T07:10:13;25.00;99.90
31991;DHT22;18508;49.386;8.370;2023-06-26T07:12:53;26.00;1.00
31991;DHT22;18508;49.386;8.370;2023-06-26T07:15:23;25.50;1.00
31991;DHT22;18508;49.386;8.370;2023-06-26T07:17:55;25.80;1.00
31991;DHT22;18508;49.386;8.370;2023-06-26T07:20:36;25.90;1.00
31991;DHT22;18508;49.386;8.370;2023-06-26T07:23:08;25.90;1.00
31991;DHT22;18508;49.386;8.370;2023-06-26T07:25:37;26.10;1.00
31991;DHT22;18508;49.386;8.370;2023-06-26T07:28:10;26.10;1.00
31991;DHT22;18508;49.386;8.370;2023-06-26T07:30:40;26.30;1.00
31991;DHT22;18508;49.386;8.370;2023-06-26T07:33:09;26.20;9.90
31991;DHT22;18508;49.386;8.370;2023-06-26T07:35:38;26.40;1.00
31991;DHT22;18508;49.386;8.370;2023-06-26T07:38:06;26.50;1.00
31991;DHT22;18508;49.386;8.370;2023-06-26T07:40:34;26.40;1.00
31991;DHT22;18508;49.386;8.370;2023-06-26T07:43:03;26.40;1.00
31991;DHT22;18508;49.386;8.370;2023-06-26T07:45:31;26.60;1.00
31991;DHT22;18508;49.386;8.370;2023-06-26T07:48:01;26.80;1.00
31991;DHT22;18508;49.386;8.370;2023-06-26T07:50:30;27.00;98.10
31991;DHT22;18508;49.386;8.370;2023-06-26T07:52:58;26.90;1.00
31991;DHT22;18508;49.386;8.370;2023-06-26T07:55:26;27.00;1.00
31991;DHT22;18508;49.386;8.370;2023-06-26T07:57:57;27.30;1.00
31991;DHT22;18508;49.386;8.370;2023-06-26T08:00:25;27.40;1.00
31991;DHT22;18508;49.386;8.370;2023-06-26T08:02:54;27.60;1.00
31991;DHT22;18508;49.386;8.370;2023-06-26T08:18:13;28.80;1.00
31991;DHT22;18508;49.386;8.370;2023-06-26T08:20:45;28.90;99.90
31991;DHT22;18508;49.386;8.370;2023-06-26T08:25:42;28.90;1.00
31991;DHT22;18508;49.386;8.370;2023-06-26T08:28:10;28.50;99.90
31991;DHT22;18508;49.386;8.370;2023-06-26T08:30:38;28.60;1.00
31991;DHT22;18508;49.386;8.370;2023-06-26T08:33:07;28.60;99.90
31991;DHT22;18508;49.386;8.370;2023-06-26T08:35:39;28.70;25.20
31991;DHT22;18508;49.386;8.370;2023-06-26T08:38:11;28.90;1.00
31991;DHT22;18508;49.386;8.370;2023-06-26T08:40:39;28.80;1.00
31991;DHT22;18508;49.386;8.370;2023-06-26T08:43:09;29.00;99.90
31991;DHT22;18508;49.386;8.370;2023-06-26T08:45:38;29.20;99.90
31991;DHT22;18508;49.386;8.370;2023-06-26T08:48:08;29.70;1.00
31991;DHT22;18508;49.386;8.370;2023-06-26T08:50:38;29.60;1.00
31991;DHT22;18508;49.386;8.370;2023-06-26T08:53:13;29.90;49.20
31991;DHT22;18508;49.386;8.370;2023-06-26T08:55:44;30.20;8.50
31991;DHT22;18508;49.386;8.370;2023-06-26T08:58:15;30.20;1.00
31991;DHT22;18508;49.386;8.370;2023-06-26T09:00:44;30.40;1.00
31991;DHT22;18508;49.386;8.370;2023-06-26T09:03:13;30.40;99.90
31991;DHT22;18508;49.386;8.370;2023-06-26T09:05:42;30.30;99.90
31991;DHT22;18508;49.386;8.370;2023-06-26T09:08:13;27.80;99.90
31991;DHT22;18508;49.386;8.370;2023-06-26T09:10:42;29.90;96.10
31991;DHT22;18508;49.386;8.370;2023-06-26T09:15:55;29.90;99.90
31991;DHT22;18508;49.386;8.370;2023-06-26T09:18:23;29.80;99.90
31991;DHT22;18508;49.386;8.370;2023-06-26T09:20:52;29.50;1.00
31991;DHT22;18508;49.386;8.370;2023-06-26T09:23:22;29.50;1.00
31991;DHT22;18508;49.386;8.370;2023-06-26T09:25:51;29.50;1.00
31991;DHT22;18508;49.386;8.370;2023-06-26T09:28:21;29.70;99.90
31991;DHT22;18508;49.386;8.370;2023-06-26T09:30:54;29.90;99.90
31991;DHT22;18508;49.386;8.370;2023-06-26T09:33:26;30.00;1.00
31991;DHT22;18508;49.386;8.370;2023-06-26T09:35:56;30.30;99.90
31991;DHT22;18508;49.386;8.370;2023-06-26T09:38:27;30.30;99.90
31991;DHT22;18508;49.386;8.370;2023-06-26T09:40:55;30.20;26.70
31991;DHT22;18508;49.386;8.370;2023-06-26T09:43:23;30.30;1.00
31991;DHT22;18508;49.386;8.370;2023-06-26T09:45:53;30.50;99.90
31991;DHT22;18508;49.386;8.370;2023-06-26T09:48:22;30.60;1.00
31991;DHT22;18508;49.386;8.370;2023-06-26T09:50:51;30.30;99.90
31991;DHT22;18508;49.386;8.370;2023-06-26T09:53:28;30.00;1.00
31991;DHT22;18508;49.386;8.370;2023-06-26T09:55:56;30.00;99.90
31991;DHT22;18508;49.386;8.370;2023-06-26T09:58:28;30.00;99.90
31991;DHT22;18508;49.386;8.370;2023-06-26T10:00:56;30.10;1.00
31991;DHT22;18508;49.386;8.370;2023-06-26T10:05:54;30.70;99.90
31991;DHT22;18508;49.386;8.370;2023-06-26T10:08:24;30.70;99.90
31991;DHT22;18508;49.386;8.370;2023-06-26T10:10:55;30.60;99.90
31991;DHT22;18508;49.386;8.370;2023-06-26T10:13:29;30.40;99.90
31991;DHT22;18508;49.386;8.370;2023-06-26T10:15:59;30.60;99.90
31991;DHT22;18508;49.386;8.370;2023-06-26T10:18:31;30.20;99.90
31991;DHT22;18508;49.386;8.370;2023-06-26T10:21:02;30.10;99.90
31991;DHT22;18508;49.386;8.370;2023-06-26T10:23:31;30.20;99.90
31991;DHT22;18508;49.386;8.370;2023-06-26T10:26:02;30.50;99.90
31991;DHT22;18508;49.386;8.370;2023-06-26T10:28:33;30.50;99.90
31991;DHT22;18508;49.386;8.370;2023-06-26T10:31:06;30.70;99.90
31991;DHT22;18508;49.386;8.370;2023-06-26T10:39:07;30.00;99.90
31991;DHT22;18508;49.386;8.370;2023-06-26T10:41:54;29.80;99.90
31991;DHT22;18508;49.386;8.370;2023-06-26T10:44:40;29.70;99.90
31991;DHT22;18508;49.386;8.370;2023-06-26T10:47:09;29.70;99.90
31991;DHT22;18508;49.386;8.370;2023-06-26T10:49:38;29.80;99.90
31991;DHT22;18508;49.386;8.370;2023-06-26T10:52:11;29.60;99.90
31991;DHT22;18508;49.386;8.370;2023-06-26T10:54:40;29.50;99.90
31991;DHT22;18508;49.386;8.370;2023-06-26T10:57:09;29.40;99.90
31991;DHT22;18508;49.386;8.370;2023-06-26T10:59:40;29.20;99.90
31991;DHT22;18508;49.386;8.370;2023-06-26T11:02:10;29.20;99.90
31991;DHT22;18508;49.386;8.370;2023-06-26T11:04:40;29.10;99.90
31991;DHT22;18508;49.386;8.370;2023-06-26T11:07:18;29.00;99.90
31991;DHT22;18508;49.386;8.370;2023-06-26T11:09:57;29.20;99.90
31991;DHT22;18508;49.386;8.370;2023-06-26T11:12:39;29.20;99.90
31991;DHT22;18508;49.386;8.370;2023-06-26T11:15:09;29.20;99.90
31991;DHT22;18508;49.386;8.370;2023-06-26T11:17:38;29.30;99.90
31991;DHT22;18508;49.386;8.370;2023-06-26T11:20:09;29.50;99.90
31991;DHT22;18508;49.386;8.370;2023-06-26T11:22:39;29.90;51.00
31991;DHT22;18508;49.386;8.370;2023-06-26T11:25:09;29.80;63.20
31991;DHT22;18508;49.386;8.370;2023-06-26T11:27:40;30.10;97.70
31991;DHT22;18508;49.386;8.370;2023-06-26T11:30:10;30.30;77.50
31991;DHT22;18508;49.386;8.370;2023-06-26T11:32:39;30.10;27.70
31991;DHT22;18508;49.386;8.370;2023-06-26T11:35:09;30.10;1.00
31991;DHT22;18508;49.386;8.370;2023-06-26T11:37:38;30.30;1.00
31991;DHT22;18508;49.386;8.370;2023-06-26T11:40:17;30.30;1.00
31991;DHT22;18508;49.386;8.370;2023-06-26T11:42:47;30.40;1.00
31991;DHT22;18508;49.386;8.370;2023-06-26T11:45:16;30.40;1.00
31991;DHT22;18508;49.386;8.370;2023-06-26T11:47:45;30.40;1.00
31991;DHT22;18508;49.386;8.370;2023-06-26T11:50:15;30.50;1.00
31991;DHT22;18508;49.386;8.370;2023-06-26T11:52:45;30.60;1.00
31991;DHT22;18508;49.386;8.370;2023-06-26T11:55:15;30.60;1.00
31991;DHT22;18508;49.386;8.370;2023-06-26T11:57:49;31.10;99.90
31991;DHT22;18508;49.386;8.370;2023-06-26T12:00:20;31.10;99.90
31991;DHT22;18508;49.386;8.370;2023-06-26T12:02:49;31.00;99.90
31991;DHT22;18508;49.386;8.370;2023-06-26T12:05:19;31.00;99.90
31991;DHT22;18508;49.386;8.370;2023-06-26T12:07:50;30.90;99.90
31991;DHT22;18508;49.386;8.370;2023-06-26T12:10:20;30.90;99.90
31991;DHT22;18508;49.386;8.370;2023-06-26T12:12:50;31.40;99.90
31991;DHT22;18508;49.386;8.370;2023-06-26T12:15:25;31.40;99.90
31991;DHT22;18508;49.386;8.370;2023-06-26T12:17:54;31.30;99.90
31991;DHT22;18508;49.386;8.370;2023-06-26T12:20:23;31.20;99.90
31991;DHT22;18508;49.386;8.370;2023-06-26T12:22:54;31.30;99.90
31991;DHT22;18508;49.386;8.370;2023-06-26T12:25:24;31.30;99.90
31991;DHT22;18508;49.386;8.370;2023-06-26T12:27:53;31.20;99.90
31991;DHT22;18508;49.386;8.370;2023-06-26T12:30:21;31.00;99.90
31991;DHT22;18508;49.386;8.370;2023-06-26T12:32:50;31.10;99.90
31991;DHT22;18508;49.386;8.370;2023-06-26T12:35:18;31.30;99.90
31991;DHT22;18508;49.386;8.370;2023-06-26T12:37:46;31.30;99.90
31991;DHT22;18508;49.386;8.370;2023-06-26T12:40:19;32.00;99.90
31991;DHT22;18508;49.386;8.370;2023-06-26T12:42:50;32.00;99.90
31991;DHT22;18508;49.386;8.370;2023-06-26T12:45:20;31.80;79.60
31991;DHT22;18508;49.386;8.370;2023-06-26T12:48:07;31.90;99.90
31991;DHT22;18508;49.386;8.370;2023-06-26T12:50:38;32.00;90.00
31991;DHT22;18508;49.386;8.370;2023-06-26T12:53:12;32.00;97.40
31991;DHT22;18508;49.386;8.370;2023-06-26T12:55:42;31.90;52.30
31991;DHT22;18508;49.386;8.370;2023-06-26T12:58:10;31.80;32.50
31991;DHT22;18508;49.386;8.370;2023-06-26T13:00:40;32.10;37.50
31991;DHT22;18508;49.386;8.370;2023-06-26T13:03:09;32.40;1.00
31991;DHT22;18508;49.386;8.370;2023-06-26T13:05:38;32.20;18.20
31991;DHT22;18508;49.386;8.370;2023-06-26T13:08:07;32.50;26.20
31991;DHT22;18508;49.386;8.370;2023-06-26T13:10:36;32.50;1.00
31991;DHT22;18508;49.386;8.370;2023-06-26T13:13:04;32.30;1.00
31991;DHT22;18508;49.386;8.370;2023-06-26T13:15:33;32.30;1.00
31991;DHT22;18508;49.386;8.370;2023-06-26T13:18:03;32.50;1.00
31991;DHT22;18508;49.386;8.370;2023-06-26T13:20:32;32.60;4.40
31991;DHT22;18508;49.386;8.370;2023-06-26T13:23:03;32.50;1.00
31991;DHT22;18508;49.386;8.370;2023-06-26T13:25:37;32.20;1.00
31991;DHT22;18508;49.386;8.370;2023-06-26T13:33:14;32.00;1.00
31991;DHT22;18508;49.386;8.370;2023-06-26T13:38:32;32.10;1.00
31991;DHT22;18508;49.386;8.370;2023-06-26T13:43:39;33.00;1.00
31991;DHT22;18508;49.386;8.370;2023-06-26T13:46:18;33.40;1.00
31991;DHT22;18508;49.386;8.370;2023-06-26T13:48:50;33.40;1.00
31991;DHT22;18508;49.386;8.370;2023-06-26T13:56:20;32.10;1.00
31991;DHT22;18508;49.386;8.370;2023-06-26T13:58:49;32.20;1.00
31991;DHT22;18508;49.386;8.370;2023-06-26T14:01:18;32.10;1.00
31991;DHT22;18508;49.386;8.370;2023-06-26T14:03:49;32.00;1.00
31991;DHT22;18508;49.386;8.370;2023-06-26T14:06:18;32.90;1.00
31991;DHT22;18508;49.386;8.370;2023-06-26T14:08:46;32.90;1.00
31991;DHT22;18508;49.386;8.370;2023-06-26T14:11:15;32.90;1.00
31991;DHT22;18508;49.386;8.370;2023-06-26T14:13:46;33.50;1.00
31991;DHT22;18508;49.386;8.370;2023-06-26T14:16:19;33.60;1.00
31991;DHT22;18508;49.386;8.370;2023-06-26T14:18:51;33.30;1.00
31991;DHT22;18508;49.386;8.370;2023-06-26T14:23:48;33.20;1.00
31991;DHT22;18508;49.386;8.370;2023-06-26T14:26:18;32.90;1.00
31991;DHT22;18508;49.386;8.370;2023-06-26T14:28:46;32.70;1.00
31991;DHT22;18508;49.386;8.370;2023-06-26T14:31:15;32.60;1.00
31991;DHT22;18508;49.386;8.370;2023-06-26T14:33:43;32.60;1.00
31991;DHT22;18508;49.386;8.370;2023-06-26T14:36:16;32.50;1.00
31991;DHT22;18508;49.386;8.370;2023-06-26T14:38:46;32.10;1.00
31991;DHT22;18508;49.386;8.370;2023-06-26T14:41:15;31.80;1.00
31991;DHT22;18508;49.386;8.370;2023-06-26T14:43:44;31.30;1.00
31991;DHT22;18508;49.386;8.370;2023-06-26T14:46:13;31.20;1.00
31991;DHT22;18508;49.386;8.370;2023-06-26T14:48:43;31.10;1.00
31991;DHT22;18508;49.386;8.370;2023-06-26T14:51:12;30.60;1.00
31991;DHT22;18508;49.386;8.370;2023-06-26T14:53:42;31.10;1.00
31991;DHT22;18508;49.386;8.370;2023-06-26T14:56:11;31.50;1.00
31991;DHT22;18508;49.386;8.370;2023-06-26T14:58:43;31.50;1.00
31991;DHT22;18508;49.386;8.370;2023-06-26T15:03:44;32.40;1.00
31991;DHT22;18508;49.386;8.370;2023-06-26T15:06:19;32.40;1.00
31991;DHT22;18508;49.386;8.370;2023-06-26T15:08:54;32.10;1.00
31991;DHT22;18508;49.386;8.370;2023-06-26T15:11:22;32.10;1.00
31991;DHT22;18508;49.386;8.370;2023-06-26T15:13:53;31.60;1.00
31991;DHT22;18508;49.386;8.370;2023-06-26T15:16:24;31.50;1.00
31991;DHT22;18508;49.386;8.370;2023-06-26T15:18:53;31.30;1.00
31991;DHT22;18508;49.386;8.370;2023-06-26T15:21:24;30.90;1.00
31991;DHT22;18508;49.386;8.370;2023-06-26T15:31:59;30.70;1.00
31991;DHT22;18508;49.386;8.370;2023-06-26T15:42:16;31.30;1.00
31991;DHT22;18508;49.386;8.370;2023-06-26T15:44:46;31.30;1.00
31991;DHT22;18508;49.386;8.370;2023-06-26T15:47:17;31.80;1.00
31991;DHT22;18508;49.386;8.370;2023-06-26T15:49:45;31.80;1.00
31991;DHT22;18508;49.386;8.370;2023-06-26T15:52:14;32.10;1.00
31991;DHT22;18508;49.386;8.370;2023-06-26T15:54:42;32.30;1.00
31991;DHT22;18508;49.386;8.370;2023-06-26T15:57:12;32.40;1.00
31991;DHT22;18508;49.386;8.370;2023-06-26T15:59:40;32.40;1.00
31991;DHT22;18508;49.386;8.370;2023-06-26T16:02:09;32.70;1.00
31991;DHT22;18508;49.386;8.370;2023-06-26T16:04:37;32.70;1.00
31991;DHT22;18508;49.386;8.370;2023-06-26T16:07:15;33.10;1.00
31991;DHT22;18508;49.386;8.370;2023-06-26T16:09:52;33.10;1.00
31991;DHT22;18508;49.386;8.370;2023-06-26T16:25:11;33.30;1.00
31991;DHT22;18508;49.386;8.370;2023-06-26T16:30:25;32.90;1.00
31991;DHT22;18508;49.386;8.370;2023-06-26T16:32:59;32.90;1.00
31991;DHT22;18508;49.386;8.370;2023-06-26T16:38:08;32.80;1.00
31991;DHT22;18508;49.386;8.370;2023-06-26T16:43:33;32.70;1.00
31991;DHT22;18508;49.386;8.370;2023-06-26T16:46:08;32.90;1.00
31991;DHT22;18508;49.386;8.370;2023-06-26T16:58:38;31.40;1.00
31991;DHT22;18508;49.386;8.370;2023-06-26T17:01:07;31.20;1.00
31991;DHT22;18508;49.386;8.370;2023-06-26T17:03:37;31.20;1.00
31991;DHT22;18508;49.386;8.370;2023-06-26T17:06:05;30.90;1.00
31991;DHT22;18508;49.386;8.370;2023-06-26T17:08:37;30.60;1.00
31991;DHT22;18508;49.386;8.370;2023-06-26T17:11:07;30.10;1.00
31991;DHT22;18508;49.386;8.370;2023-06-26T17:16:06;29.30;1.00
31991;DHT22;18508;49.386;8.370;2023-06-26T17:18:36;29.40;1.00
31991;DHT22;18508;49.386;8.370;2023-06-26T17:21:04;29.40;1.00
31991;DHT22;18508;49.386;8.370;2023-06-26T17:23:33;29.40;1.00
31991;DHT22;18508;49.386;8.370;2023-06-26T17:26:03;29.10;1.00
31991;DHT22;18508;49.386;8.370;2023-06-26T17:28:33;29.10;1.00
31991;DHT22;18508;49.386;8.370;2023-06-26T17:31:05;28.90;1.00
31991;DHT22;18508;49.386;8.370;2023-06-26T17:33:34;28.60;1.00
31991;DHT22;18508;49.386;8.370;2023-06-26T17:36:07;28.40;1.00
31991;DHT22;18508;49.386;8.370;2023-06-26T17:38:38;28.50;1.00
31991;DHT22;18508;49.386;8.370;2023-06-26T17:41:08;28.40;1.00
31991;DHT22;18508;49.386;8.370;2023-06-26T17:43:36;28.20;1.00
31991;DHT22;18508;49.386;8.370;2023-06-26T17:46:09;28.30;1.00
31991;DHT22;18508;49.386;8.370;2023-06-26T17:48:38;28.20;1.00
31991;DHT22;18508;49.386;8.370;2023-06-26T17:51:06;28.20;1.00
31991;DHT22;18508;49.386;8.370;2023-06-26T17:53:36;28.30;1.00
31991;DHT22;18508;49.386;8.370;2023-06-26T17:58:35;28.50;1.00
31991;DHT22;18508;49.386;8.370;2023-06-26T18:01:06;28.40;1.00
31991;DHT22;18508;49.386;8.370;2023-06-26T18:03:35;28.20;46.50
31991;DHT22;18508;49.386;8.370;2023-06-26T18:08:32;27.50;1.00
31991;DHT22;18508;49.386;8.370;2023-06-26T18:11:00;27.50;1.00
31991;DHT22;18508;49.386;8.370;2023-06-26T18:13:30;27.30;1.00
31991;DHT22;18508;49.386;8.370;2023-06-26T18:16:00;27.00;1.00
31991;DHT22;18508;49.386;8.370;2023-06-26T18:18:30;26.80;1.00
31991;DHT22;18508;49.386;8.370;2023-06-26T18:20:59;26.60;1.00
31991;DHT22;18508;49.386;8.370;2023-06-26T18:23:27;26.20;1.00
31991;DHT22;18508;49.386;8.370;2023-06-26T18:25:55;26.10;1.00
31991;DHT22;18508;49.386;8.370;2023-06-26T18:30:54;25.80;1.00
31991;DHT22;18508;49.386;8.370;2023-06-26T18:33:22;25.60;1.00
31991;DHT22;18508;49.386;8.370;2023-06-26T18:35:53;25.60;1.00